Ciudad Guayana, Venezuela
Current Conditions -  °F | °C
As of 7:00 PM on Monday 22 Dec 2014 (Local Time) from TTPP Reporting Station
Scattered Clouds Scattered Clouds  
Wind Chill: 79°   Ceiling: Unl
Heat Index: 82°   Visibility: 6mi
Dew Point: 75°   Wind: 6mph
Humidity: 89%   Direction: 110°ESE
Pressure: 29.85"   Gusts: NA
Location:  8.37°N, 62.62°W
Report Text: TTPP 222300Z 11005KT 9999 SCT016 26/24 Q1011 NOSIG
Loading
Personal Weather Stations






























Interactive Weather Map New forecast layout! Learn more

10-Day Weather Forecast

Advertisements
Track Severe Weather on mobile